Time;durP1;ratioP1;P1;durP2;ratioP2;P2;SDS_P1;SDS_P2;PMS_P1;PMS_P2;Temp;Humidity;BMP_temperature;BMP_pressure;BME280_temperature;BME280_humidity;BME280_pressure;Samples;Min_cycle;Max_cycle;Signal;HPM_P1;HPM_P2
2022/08/23 04:22:37;;;;;;;5.68;3.15;;;;;;;15.35;81.36;100106.75;5068920;28;20695;-65
2022/08/23 04:25:04;;;;;;;3.58;2.97;;;;;;;15.30;81.39;100108.41;5068977;28;20036;-64
2022/08/23 04:27:31;;;;;;;3.58;2.72;;;;;;;15.25;81.92;100102.84;5067502;28;20123;-64
2022/08/23 04:29:57;;;;;;;3.20;2.75;;;;;;;15.27;81.73;100103.47;5050833;28;20167;-65
2022/08/23 04:32:23;;;;;;;3.53;2.83;;;;;;;15.32;81.35;100104.50;5067457;28;20106;-64
2022/08/23 04:34:50;;;;;;;4.68;2.90;;;;;;;15.30;81.60;100105.72;5067558;28;20115;-65
2022/08/23 04:37:17;;;;;;;5.18;3.42;;;;;;;15.31;81.64;100118.09;5067317;28;20131;-65
2022/08/23 04:42:36;;;;;;;4.72;3.17;;;;;;;15.21;82.29;100126.59;5067094;28;20045;-65
2022/08/23 04:45:02;;;;;;;5.35;3.67;;;;;;;15.24;82.01;100120.78;5068482;28;20405;-64
2022/08/23 04:47:28;;;;;;;5.35;3.10;;;;;;;15.20;82.29;100124.94;5067277;28;20401;-64
2022/08/23 04:49:56;;;;;;;3.47;2.75;;;;;;;15.11;83.08;100124.28;5066686;28;20033;-65
2022/08/23 04:52:22;;;;;;;3.58;2.78;;;;;;;15.18;82.92;100130.50;5068405;28;20029;-62
2022/08/23 04:54:48;;;;;;;4.57;3.10;;;;;;;15.18;82.83;100132.34;5067022;28;20036;-65
2022/08/23 04:57:31;;;;;;;3.30;2.45;;;;;;;15.19;82.59;100131.31;5068051;28;20052;-65
2022/08/23 04:59:57;;;;;;;5.43;2.83;;;;;;;15.20;82.50;100138.34;5066423;28;20041;-65
2022/08/23 05:02:23;;;;;;;3.92;2.90;;;;;;;15.23;82.37;100145.97;5050227;28;20049;-64
2022/08/23 05:04:54;;;;;;;4.90;2.88;;;;;;;15.20;82.60;100144.53;5066663;28;20123;-65
2022/08/23 05:07:20;;;;;;;4.22;3.47;;;;;;;15.20;82.80;100143.72;5066487;28;20102;-65
2022/08/23 05:09:45;;;;;;;4.45;3.17;;;;;;;15.34;82.25;100150.75;5066319;28;20209;-65
2022/08/23 05:12:12;;;;;;;3.60;2.78;;;;;;;15.37;81.69;100154.84;5066703;28;20033;-64
2022/08/23 05:14:37;;;;;;;5.53;3.47;;;;;;;15.40;82.05;100152.59;5066760;28;20040;-64
2022/08/23 05:17:03;;;;;;;4.22;3.15;;;;;;;15.39;82.73;100152.81;5066460;28;20060;-64
2022/08/23 05:19:29;;;;;;;3.92;3.00;;;;;;;15.41;83.08;100158.78;5066099;28;20178;-65
2022/08/23 05:21:55;;;;;;;5.07;3.35;;;;;;;15.46;82.88;100165.19;5049502;28;20067;-63
2022/08/23 05:24:22;;;;;;;;;;;;;;;15.52;82.50;100168.06;5066615;28;20043;-63
2022/08/23 05:26:51;;;;;;;4.95;2.85;;;;;;;15.60;82.13;100170.56;5066216;28;19993;-63
2022/08/23 05:29:17;;;;;;;4.93;2.92;;;;;;;15.62;82.70;100173.88;5066014;28;20120;-63
2022/08/23 05:31:47;;;;;;;6.05;3.10;;;;;;;15.66;82.70;100178.63;5049499;28;20079;-63
2022/08/23 05:34:14;;;;;;;4.38;2.95;;;;;;;15.70;82.33;100182.53;5052550;28;20128;-65
2022/08/23 05:36:50;;;;;;;4.32;3.03;;;;;;;15.76;82.19;100180.88;5053371;28;20390;-63
2022/08/23 05:39:15;;;;;;;5.80;3.38;;;;;;;15.83;81.93;100184.38;5053067;28;20047;-64
2022/08/23 05:41:42;;;;;;;5.32;3.78;;;;;;;15.89;81.64;100190.78;5052616;28;20037;-64
2022/08/23 05:44:10;;;;;;;4.32;3.00;;;;;;;15.95;81.05;100195.31;5052522;28;20033;-64
2022/08/23 05:46:37;;;;;;;5.20;3.25;;;;;;;16.04;80.48;100193.22;5052594;28;20060;-65
2022/08/23 05:49:28;;;;;;;5.05;3.33;;;;;;;16.14;79.84;100190.94;5052320;28;20025;-64
2022/08/23 05:51:53;;;;;;;5.10;2.80;;;;;;;16.21;79.55;100195.25;5052562;28;20032;-64
2022/08/23 05:54:22;;;;;;;3.45;2.60;;;;;;;16.31;78.85;100194.00;5052389;28;20505;-65
2022/08/23 05:57:03;;;;;;;4.43;3.17;;;;;;;16.43;78.32;100201.19;5052288;28;20559;-63
2022/08/23 05:59:29;;;;;;;7.30;3.58;;;;;;;16.57;78.12;100204.66;5035635;28;20049;-64
2022/08/23 06:01:56;;;;;;;3.92;2.92;;;;;;;16.62;77.79;100207.50;5052181;28;20040;-63
2022/08/23 06:04:22;;;;;;;3.67;2.75;;;;;;;16.73;78.31;100214.13;5035772;28;20037;-64
2022/08/23 06:06:47;;;;;;;4.30;2.90;;;;;;;16.83;78.05;100209.13;5052086;28;20064;-65
2022/08/23 06:09:15;;;;;;;4.93;3.03;;;;;;;16.89;77.43;100213.66;5051919;28;20155;-65
2022/08/23 06:11:44;;;;;;;4.28;2.80;;;;;;;16.96;77.08;100210.91;5052014;28;20025;-64
2022/08/23 06:14:10;;;;;;;5.40;3.20;;;;;;;17.06;76.51;100220.16;5053362;28;20159;-64
2022/08/23 06:16:41;;;;;;;4.03;2.83;;;;;;;17.17;76.40;100225.91;5051868;28;20059;-64
2022/08/23 06:19:09;;;;;;;3.97;2.85;;;;;;;17.32;74.81;100218.34;5051940;28;20468;-62
2022/08/23 06:22:04;;;;;;;4.05;3.05;;;;;;;17.44;74.60;100219.28;5051978;28;20033;-65
2022/08/23 06:24:35;;;;;;;4.88;2.90;;;;;;;17.51;73.47;100214.66;5051923;28;20045;-65
2022/08/23 06:27:10;;;;;;;3.75;2.85;;;;;;;17.63;73.33;100220.19;5051768;28;20037;-51
2022/08/23 06:29:37;;;;;;;4.50;3.13;;;;;;;17.74;72.68;100222.19;5051640;28;20101;-51
2022/08/23 06:32:23;;;;;;;4.20;2.58;;;;;;;17.89;72.87;100224.53;5021942;28;20136;-58
2022/08/23 06:35:07;;;;;;;5.15;3.25;;;;;;;18.01;71.71;100220.06;5053108;28;20055;-54
2022/08/23 06:37:49;;;;;;;3.63;2.85;;;;;;;18.13;70.72;100229.06;5048216;28;20060;-55
2022/08/23 06:40:34;;;;;;;5.20;2.40;;;;;;;18.30;70.44;100221.22;5049902;28;20056;-55
2022/08/23 06:43:38;;;;;;;5.20;2.70;;;;;;;18.55;67.93;100223.81;5044496;28;20044;-57
2022/08/23 06:46:27;;;;;;;5.78;2.70;;;;;;;18.72;67.01;100224.09;5031156;28;20040;-54
2022/08/23 06:48:54;;;;;;;2.95;2.35;;;;;;;18.90;66.46;100228.59;5052457;28;20090;-55
2022/08/23 06:51:28;;;;;;;2.80;2.05;;;;;;;18.98;67.01;100231.81;5051033;28;20028;-53
2022/08/23 06:54:11;;;;;;;5.03;2.80;;;;;;;19.11;66.64;100233.53;5051551;28;20478;-56
2022/08/23 06:56:48;;;;;;;4.30;2.80;;;;;;;19.27;66.02;100245.53;5051186;28;20060;-54
2022/08/23 06:59:20;;;;;;;5.20;2.72;;;;;;;19.40;64.87;100242.63;5051041;28;20033;-54
2022/08/23 07:02:07;;;;;;;4.13;2.40;;;;;;;19.56;64.28;100241.16;5052267;28;20472;-56
2022/08/23 07:04:54;;;;;;;3.47;2.50;;;;;;;19.71;63.54;100246.97;5051259;28;20107;-58
2022/08/23 07:07:36;;;;;;;2.72;2.10;;;;;;;19.86;63.32;100235.69;5052222;28;20044;-52
2022/08/23 07:10:03;;;;;;;3.47;2.10;;;;;;;20.00;62.45;100238.97;5051384;28;20079;-54
2022/08/23 07:12:30;;;;;;;2.33;2.05;;;;;;;20.12;62.30;100237.09;5050531;28;20112;-54
2022/08/23 07:14:55;;;;;;;4.63;2.40;;;;;;;20.16;62.84;100235.56;5050910;28;20442;-48
2022/08/23 07:17:21;;;;;;;2.47;2.03;;;;;;;20.26;61.92;100241.19;5050657;28;20037;-52
2022/08/23 07:19:48;;;;;;;2.90;2.40;;;;;;;20.42;61.03;100244.25;5049913;28;20032;-53
2022/08/23 07:22:13;;;;;;;3.58;2.33;;;;;;;20.57;60.14;100239.19;5050528;28;20397;-54
2022/08/23 07:24:41;;;;;;;4.10;2.20;;;;;;;20.70;59.96;100240.81;5050613;28;20413;-58
2022/08/23 07:27:08;;;;;;;2.75;2.08;;;;;;;20.79;60.13;100240.16;5050529;28;20482;-56
2022/08/23 07:29:41;;;;;;;3.60;2.13;;;;;;;20.81;60.46;100240.78;5049991;28;20532;-54
2022/08/23 07:32:08;;;;;;;4.28;2.13;;;;;;;21.10;59.55;100246.19;5050742;28;20124;-57
2022/08/23 07:34:34;;;;;;;3.65;2.05;;;;;;;21.12;59.55;100250.28;5050399;28;20413;-56
2022/08/23 07:37:00;;;;;;;2.83;1.88;;;;;;;21.53;57.53;100239.41;5050372;28;20068;-54
2022/08/23 07:39:26;;;;;;;2.70;1.73;;;;;;;21.60;56.99;100245.47;5049705;28;20061;-55
2022/08/23 07:41:52;;;;;;;3.08;1.98;;;;;;;21.76;56.43;100247.34;5050260;28;20070;-65
2022/08/23 07:44:19;;;;;;;3.10;2.10;;;;;;;21.87;56.59;100251.06;5050253;28;20501;-65
2022/08/23 07:46:46;;;;;;;4.15;2.35;;;;;;;21.91;56.46;100242.19;5050143;28;20052;-65
2022/08/23 07:49:13;;;;;;;3.17;2.00;;;;;;;22.19;55.67;100243.16;5049576;28;20036;-65
2022/08/23 07:51:46;;;;;;;3.83;1.60;;;;;;;22.27;55.27;100250.88;5050330;28;20061;-65
2022/08/23 07:54:13;;;;;;;3.50;2.13;;;;;;;22.40;55.53;100249.69;5050200;28;20029;-65
2022/08/23 07:56:46;;;;;;;2.95;1.75;;;;;;;22.42;55.05;100251.06;5049856;28;20029;-66
2022/08/23 07:59:30;;;;;;;3.95;2.03;;;;;;;22.78;53.64;100251.53;5050124;28;20056;-62
2022/08/23 08:02:13;;;;;;;3.70;1.83;;;;;;;22.78;54.17;100250.72;5051402;28;20076;-65
2022/08/23 08:04:39;;;;;;;3.22;1.60;;;;;;;22.87;53.34;100243.78;5051347;28;20072;-63
2022/08/23 08:07:05;;;;;;;1.87;1.47;;;;;;;23.04;52.78;100257.28;5050096;28;20063;-64
2022/08/23 08:09:34;;;;;;;2.00;1.50;;;;;;;23.20;52.74;100259.06;5049802;28;20033;-64
2022/08/23 08:11:59;;;;;;;2.00;1.45;;;;;;;23.31;52.07;100260.81;5051402;28;20029;-64
2022/08/23 08:14:30;;;;;;;2.22;1.65;;;;;;;23.33;52.54;100264.09;5050000;28;20033;-64
2022/08/23 08:16:59;;;;;;;3.63;1.90;;;;;;;23.52;51.31;100257.22;5049936;28;20037;-64
2022/08/23 08:19:53;;;;;;;11.30;1.90;;;;;;;23.52;51.55;100259.13;4996696;28;20074;-64
2022/08/23 08:22:46;;;;;;;3.78;1.50;;;;;;;23.55;51.47;100259.44;5035074;28;20283;-64
2022/08/23 08:25:20;;;;;;;4.57;1.52;;;;;;;23.58;51.24;100268.13;5051196;28;20406;-64
2022/08/23 08:27:48;;;;;;;2.38;1.50;;;;;;;23.65;51.28;100263.34;5049952;28;20115;-63
2022/08/23 08:30:14;;;;;;;1.75;1.40;;;;;;;23.96;51.20;100265.22;5049691;28;20401;-63
2022/08/23 08:32:42;;;;;;;3.03;1.50;;;;;;;24.07;49.87;100264.22;5049858;28;20033;-62
2022/08/23 08:35:09;;;;;;;1.92;1.38;;;;;;;24.13;50.08;100262.34;5049727;28;20036;-63
2022/08/23 08:37:35;;;;;;;2.50;1.48;;;;;;;24.31;50.39;100259.19;5049712;28;20033;-64
2022/08/23 08:40:01;;;;;;;3.80;1.77;;;;;;;24.29;49.41;100268.69;5049451;28;20106;-63
2022/08/23 08:43:04;;;;;;;2.85;1.70;;;;;;;24.56;49.18;100257.72;5049574;28;20033;-62
2022/08/23 08:45:56;;;;;;;3.90;1.60;;;;;;;24.49;48.95;100268.03;5050914;28;20063;-63
2022/08/23 08:48:24;;;;;;;4.90;1.55;;;;;;;24.54;48.81;100268.88;5049481;28;20040;-63
2022/08/23 08:50:56;;;;;;;3.83;1.67;;;;;;;24.86;47.90;100267.91;5049420;28;20048;-63
2022/08/23 08:53:26;;;;;;;2.85;1.33;;;;;;;24.85;48.22;100271.72;5049570;28;20128;-63
2022/08/23 08:56:22;;;;;;;3.20;1.63;;;;;;;25.01;48.58;100269.88;5043442;28;20045;-63
2022/08/23 08:59:00;;;;;;;2.40;1.50;;;;;;;25.15;45.61;100268.28;5049490;28;20079;-63
2022/08/23 09:01:28;;;;;;;2.55;1.60;;;;;;;25.11;46.53;100262.59;5049617;28;20441;-63
2022/08/23 09:03:56;;;;;;;1.70;1.42;;;;;;;25.41;47.12;100269.16;5049793;28;20500;-61
2022/08/23 09:06:30;;;;;;;;;;;;;;;25.63;46.04;100263.47;5050049;28;20036;-64
2022/08/23 09:09:17;;;;;;;2.22;1.83;;;;;;;25.81;45.96;100265.66;5052319;28;20405;-63
2022/08/23 09:12:00;;;;;;;4.07;1.50;;;;;;;25.73;45.74;100263.50;5053298;28;20502;-63
2022/08/23 09:14:36;;;;;;;4.30;1.55;;;;;;;25.63;45.29;100267.00;5053197;28;20139;-63
2022/08/23 09:17:11;;;;;;;3.17;1.37;;;;;;;25.79;44.90;100267.03;5053129;28;20037;-63
2022/08/23 09:19:38;;;;;;;2.00;1.55;;;;;;;25.90;45.13;100264.03;5053031;28;20278;-63
2022/08/23 09:22:13;;;;;;;2.38;1.60;;;;;;;26.29;46.64;100251.69;5052871;28;20045;-63
2022/08/23 09:24:39;;;;;;;1.77;1.67;;;;;;;26.39;43.94;100262.56;5053003;28;20057;-62
2022/08/23 09:27:12;;;;;;;2.70;1.70;;;;;;;26.46;42.65;100263.13;5052960;28;20105;-62
2022/08/23 09:29:50;;;;;;;3.28;1.83;;;;;;;26.75;43.10;100258.66;5052783;28;20632;-62
2022/08/23 09:32:33;;;;;;;2.58;1.90;;;;;;;26.78;42.76;100262.72;5054399;28;20088;-63
2022/08/23 09:35:05;;;;;;;2.95;1.70;;;;;;;26.87;41.79;100261.06;5053104;28;20410;-63
2022/08/23 09:37:46;;;;;;;3.78;1.70;;;;;;;26.99;40.98;100264.25;5052745;28;20032;-63
2022/08/23 09:40:43;;;;;;;2.50;1.63;;;;;;;27.48;39.25;100266.19;5053817;28;20029;-63
2022/08/23 09:43:16;;;;;;;1.90;1.48;;;;;;;27.70;40.27;100273.16;5049714;28;20049;-62
2022/08/23 09:45:48;;;;;;;3.35;1.90;;;;;;;27.87;38.67;100268.09;5052892;28;20055;-63
2022/08/23 09:48:33;;;;;;;2.20;1.50;;;;;;;28.43;37.82;100269.44;5053396;28;20090;-64
2022/08/23 09:51:16;;;;;;;2.03;1.67;;;;;;;28.46;37.94;100272.44;5052371;28;20037;-63
2022/08/23 09:53:49;;;;;;;2.55;1.23;;;;;;;28.55;37.66;100272.59;5036244;28;20044;-62
2022/08/23 09:56:18;;;;;;;3.50;1.70;;;;;;;28.76;37.53;100259.50;5053998;28;20033;-63
2022/08/23 09:58:49;;;;;;;3.05;1.70;;;;;;;29.06;36.97;100261.03;5052496;28;20040;-63
2022/08/23 10:01:25;;;;;;;;;;;;;;;29.19;37.39;100263.03;5052616;28;20063;-63
2022/08/23 10:04:15;;;;;;;2.70;1.60;;;;;;;29.95;35.06;100255.53;5052531;28;20015;-63
2022/08/23 10:06:44;;;;;;;1.58;1.42;;;;;;;29.80;36.30;100247.53;5052400;28;20062;-62
2022/08/23 10:09:32;;;;;;;2.45;1.60;;;;;;;30.18;35.83;100249.06;5052033;28;20024;-63
2022/08/23 10:12:01;;;;;;;2.25;1.75;;;;;;;30.63;33.77;100252.00;5052384;28;20036;-63
2022/08/23 10:14:31;;;;;;;1.65;1.48;;;;;;;31.14;32.91;100250.94;5052447;28;20037;-64
2022/08/23 10:17:32;;;;;;;2.88;1.70;;;;;;;31.05;32.89;100242.63;5052036;28;20436;-65
2022/08/23 10:20:27;;;;;;;2.13;1.60;;;;;;;31.64;32.53;100241.81;5051465;28;20124;-65
2022/08/23 10:23:12;;;;;;;2.85;1.20;;;;;;;32.06;30.80;100233.00;5051988;28;20062;-65
2022/08/23 10:25:48;;;;;;;2.42;1.33;;;;;;;32.25;31.82;100232.75;5051815;28;20112;-65
2022/08/23 10:31:54;;;;;;;2.85;1.50;;;;;;;32.48;29.73;100228.00;5052014;28;20050;-65
2022/08/23 10:34:34;;;;;;;2.08;1.42;;;;;;;32.83;29.77;100220.63;5051640;28;20064;-65
2022/08/23 10:37:23;;;;;;;2.67;1.60;;;;;;;32.86;30.09;100208.13;5051485;28;20036;-65
2022/08/23 10:39:58;;;;;;;2.50;1.30;;;;;;;33.75;28.77;100217.69;5052621;28;20041;-65
2022/08/23 10:43:02;;;;;;;3.13;1.60;;;;;;;33.77;26.92;100215.41;5051611;28;20033;-64
2022/08/23 10:45:31;;;;;;;2.65;1.30;;;;;;;34.04;27.57;100207.84;5021401;28;20067;-65
2022/08/23 10:48:30;;;;;;;3.58;1.90;;;;;;;34.25;28.14;100204.03;5051502;28;20114;-65
2022/08/23 10:51:24;;;;;;;3.00;1.55;;;;;;;34.27;27.17;100204.50;5051071;28;20510;-65
2022/08/23 10:53:59;;;;;;;1.50;1.30;;;;;;;34.57;27.06;100199.00;5047639;28;20382;-64
2022/08/23 10:56:27;;;;;;;2.63;1.30;;;;;;;34.61;27.05;100194.41;5051368;28;20121;-65
2022/08/23 10:59:25;;;;;;;2.55;1.75;;;;;;;34.89;25.87;100188.38;5051223;28;20048;-65
2022/08/23 11:02:06;;;;;;;2.55;1.50;;;;;;;34.93;26.34;100190.16;5051150;28;20025;-65
2022/08/23 11:04:47;;;;;;;1.88;1.38;;;;;;;34.06;26.38;100187.06;5051324;28;20123;-65
2022/08/23 11:07:40;;;;;;;2.95;1.80;;;;;;;35.25;25.66;100185.78;5051181;28;20029;-65
2022/08/23 11:10:16;;;;;;;2.03;1.48;;;;;;;35.34;24.56;100186.53;5050891;28;20040;-64
2022/08/23 11:13:20;;;;;;;2.17;1.30;;;;;;;35.77;24.12;100188.06;5051128;28;20403;-65
2022/08/23 11:15:59;;;;;;;;;;;;;;;36.39;23.88;100181.44;5049204;28;20049;-65
2022/08/23 11:18:47;;;;;;;2.45;1.20;;;;;;;36.66;22.88;100182.66;5050913;28;19929;-65
2022/08/23 11:21:17;;;;;;;3.95;1.95;;;;;;;36.76;22.98;100178.59;5050891;28;20036;-65
2022/08/23 11:23:57;;;;;;;1.70;1.25;;;;;;;35.81;23.39;100177.09;5050966;28;20048;-65
2022/08/23 11:26:27;;;;;;;1.83;1.30;;;;;;;36.17;23.59;100178.28;5050863;28;20040;-65
2022/08/23 11:29:16;;;;;;;1.73;1.38;;;;;;;36.51;23.63;100171.47;5050678;28;20037;-65
2022/08/23 11:32:00;;;;;;;1.35;1.13;;;;;;;36.11;23.71;100174.94;5050190;28;20039;-64
2022/08/23 11:34:32;;;;;;;2.28;1.23;;;;;;;36.86;23.29;100169.81;5050790;28;20033;-65
2022/08/23 11:37:20;;;;;;;1.65;1.30;;;;;;;36.93;21.58;100175.56;5050619;28;20036;-65
2022/08/23 11:40:00;;;;;;;2.05;1.50;;;;;;;36.96;20.85;100168.50;5050383;28;20036;-65
2022/08/23 11:42:37;;;;;;;2.10;1.23;;;;;;;37.25;21.37;100163.75;5050698;28;20029;-64
2022/08/23 11:45:26;;;;;;;1.40;1.25;;;;;;;37.30;21.80;100166.25;5033922;28;20032;-65
2022/08/23 11:48:10;;;;;;;2.40;1.70;;;;;;;37.89;20.43;100169.09;5038624;28;20448;-65
2022/08/23 11:50:38;;;;;;;2.65;1.70;;;;;;;37.88;20.89;100163.88;5051416;28;20035;-65
2022/08/23 11:53:22;;;;;;;1.50;1.30;;;;;;;37.31;20.83;100173.47;5051701;28;20029;-66
2022/08/23 11:55:50;;;;;;;1.55;1.10;;;;;;;37.69;20.18;100168.16;5051574;28;20106;-65
2022/08/23 11:58:26;;;;;;;2.05;1.10;;;;;;;37.75;19.74;100155.59;5051601;28;20109;-65
2022/08/23 12:01:06;;;;;;;2.13;1.43;;;;;;;37.20;19.73;100162.03;5051388;28;20025;-65
2022/08/23 12:03:50;;;;;;;1.83;1.30;;;;;;;37.36;20.67;100160.13;5051601;28;20041;-64
2022/08/23 12:06:18;;;;;;;3.28;1.65;;;;;;;37.26;20.04;100155.06;5051317;28;20037;-65
2022/08/23 12:08:55;;;;;;;1.58;1.15;;;;;;;37.78;19.38;100154.09;5051593;28;20473;-65
2022/08/23 12:11:23;;;;;;;1.83;1.30;;;;;;;36.31;20.34;100153.78;5051413;28;20053;-65
2022/08/23 12:13:54;;;;;;;1.83;1.45;;;;;;;37.04;19.61;100148.13;5050293;28;20044;-65
2022/08/23 12:16:20;;;;;;;2.05;1.30;;;;;;;36.63;19.88;100146.50;5051844;28;20041;-65
2022/08/23 12:18:48;;;;;;;1.10;0.93;;;;;;;37.11;19.46;100145.56;5051297;28;20025;-64
2022/08/23 12:21:25;;;;;;;1.38;1.10;;;;;;;37.41;19.08;100143.22;5060091;28;20112;-64
2022/08/23 12:23:54;;;;;;;1.55;1.20;;;;;;;38.46;19.04;100139.06;5071449;28;20040;-64
2022/08/23 12:26:38;;;;;;;2.70;1.00;;;;;;;38.15;18.39;100151.06;5071531;28;20452;-64
2022/08/23 12:29:41;;;;;;;2.92;1.33;;;;;;;37.46;18.36;100137.41;5071003;28;20500;-64
2022/08/23 12:32:36;;;;;;;1.77;1.33;;;;;;;38.73;18.41;100137.28;5071360;28;20072;-64
2022/08/23 12:35:26;;;;;;;1.90;1.27;;;;;;;38.44;18.43;100147.78;5071567;28;20036;-63
2022/08/23 12:38:04;;;;;;;1.23;1.00;;;;;;;38.66;18.10;100137.09;5072036;28;20463;-65
2022/08/23 12:40:38;;;;;;;2.35;1.15;;;;;;;38.49;18.13;100130.00;5071519;28;20047;-64
2022/08/23 12:43:10;;;;;;;1.65;1.25;;;;;;;38.23;17.46;100136.13;5072988;28;20652;-65
2022/08/23 12:45:44;;;;;;;1.20;0.93;;;;;;;38.61;17.20;100132.66;5057106;28;20048;-65
2022/08/23 12:48:18;;;;;;;1.30;1.10;;;;;;;38.52;17.80;100123.69;5075113;28;20048;-64
2022/08/23 12:50:50;;;;;;;1.40;1.00;;;;;;;39.02;17.50;100121.97;5074822;28;20086;-64
2022/08/23 12:53:26;;;;;;;2.72;1.30;;;;;;;39.06;17.43;100123.66;5075085;28;20493;-64
2022/08/23 12:56:06;;;;;;;1.52;1.13;;;;;;;38.93;17.28;100126.94;5074974;28;20035;-65
2022/08/23 12:58:35;;;;;;;1.73;1.20;;;;;;;38.44;18.14;100122.72;5075009;28;20041;-65
2022/08/23 13:01:21;;;;;;;1.45;1.10;;;;;;;38.41;17.99;100126.25;5074566;28;20047;-65
2022/08/23 13:03:52;;;;;;;1.40;1.20;;;;;;;38.19;17.39;100118.56;5057042;28;20115;-64
2022/08/23 13:06:23;;;;;;;4.05;1.40;;;;;;;38.35;17.66;100122.16;5074721;28;20115;-64
2022/08/23 13:08:56;;;;;;;1.50;1.25;;;;;;;37.59;18.33;100120.66;5070855;28;20414;-65
2022/08/23 13:11:26;;;;;;;2.17;1.38;;;;;;;38.54;17.91;100119.41;5064553;28;20036;-64
2022/08/23 13:13:51;;;;;;;1.25;1.15;;;;;;;37.89;17.63;100107.16;5064369;28;20064;-64
2022/08/23 13:16:30;;;;;;;1.50;1.10;;;;;;;37.44;18.55;100105.59;5062450;28;20061;-64
2022/08/23 13:19:14;;;;;;;2.17;1.00;;;;;;;38.03;18.45;100115.00;5062148;28;20040;-65
2022/08/23 13:21:39;;;;;;;1.70;1.45;;;;;;;37.69;18.13;100104.25;5046232;28;20047;-64
2022/08/23 13:24:31;;;;;;;1.23;1.10;;;;;;;38.61;17.15;100110.38;5063458;28;20481;-65
2022/08/23 13:27:10;;;;;;;1.15;1.05;;;;;;;39.16;17.61;100110.34;5062271;28;20541;-66
2022/08/23 13:29:48;;;;;;;1.50;1.15;;;;;;;39.06;17.55;100106.13;5063750;28;20032;-66
2022/08/23 13:32:39;;;;;;;1.30;1.10;;;;;;;39.89;17.19;100109.22;5064210;28;20095;-65
2022/08/23 13:35:26;;;;;;;1.52;1.20;;;;;;;38.87;16.86;100114.53;5063450;28;20051;-65
2022/08/23 13:38:07;;;;;;;1.90;1.25;;;;;;;38.55;17.75;100109.88;5063954;28;20036;-65
2022/08/23 13:40:51;;;;;;;1.45;1.20;;;;;;;38.93;17.14;100108.28;5063608;28;20050;-65
2022/08/23 13:43:31;;;;;;;1.00;0.90;;;;;;;39.13;17.06;100106.28;5061909;28;20025;-65
2022/08/23 13:46:07;;;;;;;1.13;0.98;;;;;;;38.33;16.95;100102.22;5061909;28;20057;-65
2022/08/23 13:48:34;;;;;;;1.55;1.10;;;;;;;37.97;17.79;100100.59;5061876;28;20032;-65
2022/08/23 13:51:36;;;;;;;1.85;1.20;;;;;;;36.95;18.97;100103.84;5062849;28;20172;-65
2022/08/23 13:54:12;;;;;;;1.85;1.15;;;;;;;36.80;19.38;100095.47;5061987;28;20126;-65
2022/08/23 13:56:50;;;;;;;1.40;1.10;;;;;;;35.92;19.33;100102.66;5061725;28;20028;-65
2022/08/23 13:59:35;;;;;;;1.67;1.23;;;;;;;35.41;20.08;100094.63;5070535;28;20038;-65
2022/08/23 14:02:12;;;;;;;2.38;1.30;;;;;;;34.72;20.58;100086.97;5073844;28;20058;-65
2022/08/23 14:04:38;;;;;;;1.20;1.10;;;;;;;34.49;21.06;100092.84;5073886;28;20068;-65
2022/08/23 14:07:05;;;;;;;1.48;1.20;;;;;;;34.67;20.97;100093.50;5073672;28;20036;-65
2022/08/23 14:09:32;;;;;;;1.30;1.10;;;;;;;33.52;21.35;100089.28;5073436;28;20090;-64
2022/08/23 14:12:02;;;;;;;1.10;1.00;;;;;;;34.06;21.95;100101.41;5073589;28;20075;-64
2022/08/23 14:14:30;;;;;;;1.50;1.20;;;;;;;33.77;21.91;100098.59;5073497;28;20040;-65
2022/08/23 14:16:56;;;;;;;1.05;1.00;;;;;;;33.40;21.98;100095.50;5073648;28;20036;-65
2022/08/23 14:19:21;;;;;;;1.60;1.40;;;;;;;33.50;21.58;100089.59;5073425;28;20045;-65
2022/08/23 14:21:47;;;;;;;1.43;1.20;;;;;;;33.40;21.62;100085.28;5073568;28;20097;-65
2022/08/23 14:24:12;;;;;;;1.50;1.30;;;;;;;33.53;21.85;100088.16;5073383;28;20040;-64
2022/08/23 14:26:38;;;;;;;1.30;1.20;;;;;;;33.42;22.58;100082.19;5073325;28;20036;-65
2022/08/23 14:29:04;;;;;;;1.47;1.20;;;;;;;33.32;22.40;100082.47;5073069;28;20486;-63
2022/08/23 14:31:30;;;;;;;2.40;1.10;;;;;;;33.10;22.21;100076.06;5073015;28;20485;-64
2022/08/23 14:33:55;;;;;;;1.30;1.10;;;;;;;33.14;22.74;100087.25;5073304;28;20295;-65
2022/08/23 14:36:20;;;;;;;1.70;1.23;;;;;;;32.94;22.25;100080.47;5055182;28;20048;-64
2022/08/23 14:38:47;;;;;;;1.40;1.30;;;;;;;32.65;23.13;100086.63;5072977;28;20041;-64
2022/08/23 14:41:16;;;;;;;;;;;;;;;32.85;22.73;100085.16;5073515;28;20032;-64
2022/08/23 14:43:41;;;;;;;1.20;1.10;;;;;;;32.73;22.57;100077.53;5073012;28;19912;-64
2022/08/23 14:46:06;;;;;;;1.38;1.17;;;;;;;32.72;22.06;100080.63;5072931;28;20047;-64
2022/08/23 14:48:32;;;;;;;1.70;1.33;;;;;;;32.59;22.99;100074.13;5054883;28;20044;-65
2022/08/23 14:50:58;;;;;;;1.57;1.30;;;;;;;32.51;22.82;100074.94;5072570;28;20051;-65
2022/08/23 14:53:27;;;;;;;1.70;1.20;;;;;;;32.58;22.68;100073.31;5072870;28;20045;-65
2022/08/23 14:55:52;;;;;;;2.33;1.25;;;;;;;32.71;22.74;100067.97;5072676;28;20032;-65
2022/08/23 14:58:19;;;;;;;1.25;1.10;;;;;;;32.67;22.46;100074.16;5072793;28;20485;-65
2022/08/23 15:00:44;;;;;;;1.35;1.20;;;;;;;32.52;22.70;100080.13;5072455;28;20036;-64
2022/08/23 15:03:16;;;;;;;1.43;1.20;;;;;;;32.16;22.63;100068.56;5072609;28;20086;-65
2022/08/23 15:05:42;;;;;;;1.38;1.02;;;;;;;32.54;23.49;100071.53;5071739;28;20048;-64
2022/08/23 15:08:07;;;;;;;1.80;1.00;;;;;;;32.43;22.80;100082.09;5072461;28;20028;-64
2022/08/23 15:10:33;;;;;;;2.07;1.23;;;;;;;32.45;22.46;100074.28;5072076;28;20071;-64
2022/08/23 15:12:58;;;;;;;1.90;1.40;;;;;;;32.07;23.13;100076.78;5072433;28;20389;-63
2022/08/23 15:15:24;;;;;;;1.60;1.27;;;;;;;32.26;23.17;100074.56;5072124;28;20036;-64
2022/08/23 15:17:53;;;;;;;1.52;1.00;;;;;;;32.35;23.58;100074.63;5072186;28;20098;-64
2022/08/23 15:20:20;;;;;;;2.25;1.77;;;;;;;32.24;22.71;100084.28;5071725;28;20168;-64
2022/08/23 15:22:45;;;;;;;1.55;1.13;;;;;;;32.30;23.04;100085.75;5072338;28;20398;-64
2022/08/23 15:25:13;;;;;;;2.03;1.27;;;;;;;32.24;23.10;100081.53;5072011;28;20041;-64
2022/08/23 15:27:40;;;;;;;1.30;1.20;;;;;;;32.06;23.31;100081.50;5071791;28;20040;-63
2022/08/23 15:30:06;;;;;;;2.80;1.15;;;;;;;32.09;24.38;100077.31;5071736;28;20040;-64
2022/08/23 15:32:31;;;;;;;1.77;1.60;;;;;;;32.03;23.89;100076.66;5071803;28;20382;-64
2022/08/23 15:34:57;;;;;;;1.25;1.15;;;;;;;32.04;24.23;100077.44;5053938;28;20040;-64
2022/08/23 15:37:22;;;;;;;1.50;1.30;;;;;;;32.02;24.17;100069.50;5071843;28;20485;-64
2022/08/23 15:39:48;;;;;;;1.95;1.45;;;;;;;31.88;24.09;100072.38;5071755;28;20127;-64
2022/08/23 15:42:13;;;;;;;1.52;1.40;;;;;;;31.72;23.67;100073.91;5072016;28;20048;-63
2022/08/23 15:44:39;;;;;;;2.73;2.10;;;;;;;31.65;24.15;100073.56;5053994;28;20115;-63
2022/08/23 15:47:16;;;;;;;3.33;1.20;;;;;;;31.76;24.66;100074.09;5071615;28;20040;-65
2022/08/23 15:49:41;;;;;;;2.30;1.27;;;;;;;31.59;24.22;100072.91;5071384;28;20067;-64
2022/08/23 15:52:07;;;;;;;2.10;1.30;;;;;;;31.46;24.37;100067.50;5053595;28;20035;-64
2022/08/23 15:54:32;;;;;;;2.88;1.60;;;;;;;31.52;24.15;100069.78;5071590;28;20067;-65
2022/08/23 15:56:58;;;;;;;1.88;1.50;;;;;;;31.48;24.61;100065.22;5071858;28;20468;-65
2022/08/23 15:59:23;;;;;;;3.72;2.60;;;;;;;31.50;24.23;100063.81;5071748;28;20043;-65
2022/08/23 16:01:49;;;;;;;1.67;1.20;;;;;;;31.50;23.82;100058.31;5071591;28;20036;-65
2022/08/23 16:04:14;;;;;;;1.50;1.30;;;;;;;31.49;23.98;100058.59;5071440;28;20068;-64
2022/08/23 16:06:40;;;;;;;1.40;1.30;;;;;;;31.50;24.69;100068.50;5071520;28;20040;-64
2022/08/23 16:09:14;;;;;;;1.85;1.50;;;;;;;31.51;25.07;100065.41;5071223;28;20032;-64
2022/08/23 16:11:40;;;;;;;2.13;1.40;;;;;;;31.43;24.26;100057.94;5053376;28;20037;-64
2022/08/23 16:14:05;;;;;;;2.15;1.52;;;;;;;31.38;23.91;100063.59;5071398;28;20062;-64
2022/08/23 16:16:35;;;;;;;1.25;1.10;;;;;;;31.19;23.69;100062.97;5071253;28;20112;-65
2022/08/23 16:19:00;;;;;;;1.75;1.27;;;;;;;31.30;25.05;100061.59;5071347;28;20362;-64
2022/08/23 16:21:28;;;;;;;1.48;1.13;;;;;;;31.17;24.17;100065.19;5071113;28;20029;-65
2022/08/23 16:23:55;;;;;;;2.78;1.25;;;;;;;31.04;24.11;100062.22;5071356;28;20036;-65